Time;durP1;ratioP1;P1;durP2;ratioP2;P2;SDS_P1;SDS_P2;PMS_P1;PMS_P2;Temp;Humidity;BMP_temperature;BMP_pressure;BME280_temperature;BME280_humidity;BME280_pressure;Samples;Min_cycle;Max_cycle;Signal;HPM_P1;HPM_P2
2023/06/12 00:00:38;;;;;;;5.13;2.53;;;;;;;;;;5032920;28;20487;-68
2023/06/12 00:03:03;;;;;;;6.38;2.65;;;;;;;;;;5033014;28;20032;-67
2023/06/12 00:05:29;;;;;;;7.00;3.42;;;;;;;;;;5032921;28;20029;-68
2023/06/12 00:07:56;;;;;;;4.32;2.70;;;;;;;;;;5033241;28;20540;-68
2023/06/12 00:10:22;;;;;;;4.68;3.67;;;;;;;;;;5032957;28;20497;-67
2023/06/12 00:12:47;;;;;;;6.68;4.07;;;;;;;;;;5032125;28;20038;-68
2023/06/12 00:15:13;;;;;;;7.63;3.00;;;;;;;;;;5032762;28;20096;-67
2023/06/12 00:17:38;;;;;;;3.80;2.58;;;;;;;;;;5032812;28;20120;-67
2023/06/12 00:20:05;;;;;;;6.65;3.47;;;;;;;;;;5032696;28;20021;-67
2023/06/12 00:22:30;;;;;;;9.75;3.05;;;;;;;;;;5031664;28;20029;-67
2023/06/12 00:24:56;;;;;;;9.93;3.90;;;;;;;;;;5033374;28;20033;-67
2023/06/12 00:27:21;;;;;;;4.93;3.15;;;;;;;;;;5032648;28;20072;-67
2023/06/12 00:29:46;;;;;;;5.22;3.75;;;;;;;;;;5032831;28;20387;-67
2023/06/12 00:32:11;;;;;;;6.53;3.45;;;;;;;;;;5032842;28;20113;-67
2023/06/12 00:34:37;;;;;;;5.78;3.25;;;;;;;;;;5032728;28;20088;-67
2023/06/12 00:37:02;;;;;;;10.00;4.13;;;;;;;;;;5032992;28;20025;-67
2023/06/12 00:39:28;;;;;;;5.47;2.50;;;;;;;;;;5033028;28;20108;-67
2023/06/12 00:41:53;;;;;;;6.25;2.50;;;;;;;;;;5032809;28;20497;-67
2023/06/12 00:44:18;;;;;;;5.97;3.78;;;;;;;;;;5032656;28;20074;-67
2023/06/12 00:46:43;;;;;;;7.63;2.70;;;;;;;;;;5032850;28;20049;-67
2023/06/12 00:49:09;;;;;;;8.50;3.45;;;;;;;;;;5032943;28;20360;-68
2023/06/12 00:51:34;;;;;;;8.52;2.95;;;;;;;;;;5032617;28;20056;-67
2023/06/12 00:54:00;;;;;;;7.45;3.30;;;;;;;;;;5032550;28;20017;-67
2023/06/12 00:56:26;;;;;;;5.63;2.58;;;;;;;;;;5032606;28;20050;-67
2023/06/12 00:58:52;;;;;;;7.03;2.60;;;;;;;;;;5032390;28;20135;-67
2023/06/12 01:01:24;;;;;;;4.47;2.80;;;;;;;;;;5032523;28;20526;-67
2023/06/12 01:03:51;;;;;;;5.68;3.00;;;;;;;;;;5032475;28;20048;-67
2023/06/12 01:06:21;;;;;;;5.47;2.97;;;;;;;;;;5031347;28;20026;-68
2023/06/12 01:09:00;;;;;;;6.30;2.47;;;;;;;;;;5031533;28;20100;-67
2023/06/12 01:11:26;;;;;;;9.57;3.58;;;;;;;;;;5031378;28;20399;-67
2023/06/12 01:13:52;;;;;;;8.80;3.20;;;;;;;;;;5031257;28;20021;-68
2023/06/12 01:16:17;;;;;;;4.90;3.13;;;;;;;;;;5032451;28;20032;-68
2023/06/12 01:18:43;;;;;;;5.63;2.50;;;;;;;;;;5031127;28;20029;-68
2023/06/12 01:21:13;;;;;;;3.92;2.33;;;;;;;;;;5031635;28;20021;-68
2023/06/12 01:23:47;;;;;;;6.28;3.20;;;;;;;;;;5032060;28;20025;-68
2023/06/12 01:26:50;;;;;;;5.10;2.75;;;;;;;;;;5036001;28;20036;-68
2023/06/12 01:29:53;;;;;;;7.50;3.38;;;;;;;;;;5035785;28;20431;-68
2023/06/12 01:32:19;;;;;;;5.07;3.78;;;;;;;;;;5036070;28;20080;-68
2023/06/12 01:35:00;;;;;;;6.85;4.03;;;;;;;;;;5034443;28;20026;-68
2023/06/12 01:37:33;;;;;;;6.60;3.80;;;;;;;;;;5034545;28;20070;-68
2023/06/12 01:40:05;;;;;;;9.30;3.28;;;;;;;;;;5017862;28;20017;-68
2023/06/12 01:42:31;;;;;;;6.82;3.50;;;;;;;;;;5034741;28;20382;-68
2023/06/12 01:44:56;;;;;;;4.80;3.83;;;;;;;;;;5034370;28;20079;-67
2023/06/12 01:47:22;;;;;;;8.70;3.47;;;;;;;;;;5036286;28;20029;-68
2023/06/12 01:49:48;;;;;;;10.98;2.97;;;;;;;;;;5034364;28;20112;-68
2023/06/12 01:52:13;;;;;;;4.63;2.90;;;;;;;;;;5035429;28;20107;-68
2023/06/12 01:54:40;;;;;;;4.68;2.42;;;;;;;;;;5034067;28;20021;-67
2023/06/12 01:57:05;;;;;;;5.68;3.58;;;;;;;;;;5035358;28;20032;-67
2023/06/12 01:59:32;;;;;;;5.68;3.72;;;;;;;;;;5033953;28;20453;-67
2023/06/12 02:01:57;;;;;;;6.35;2.80;;;;;;;;;;5035193;28;20083;-68
2023/06/12 02:04:23;;;;;;;7.75;3.38;;;;;;;;;;5033939;28;20026;-67
2023/06/12 02:06:48;;;;;;;5.47;3.83;;;;;;;;;;5035462;28;20032;-67
2023/06/12 02:09:15;;;;;;;6.57;3.17;;;;;;;;;;5035069;28;20025;-68
2023/06/12 02:11:40;;;;;;;10.57;3.45;;;;;;;;;;5033813;28;20372;-68
2023/06/12 02:14:05;;;;;;;5.65;2.85;;;;;;;;;;5034944;28;20059;-67
2023/06/12 02:16:30;;;;;;;6.07;2.88;;;;;;;;;;5034934;28;20079;-68
2023/06/12 02:18:56;;;;;;;4.32;2.97;;;;;;;;;;5034913;28;20060;-68
2023/06/12 02:21:22;;;;;;;5.00;3.92;;;;;;;;;;5034865;28;20028;-67
2023/06/12 02:23:47;;;;;;;8.15;3.40;;;;;;;;;;5034739;28;20018;-67
2023/06/12 02:26:12;;;;;;;7.25;3.00;;;;;;;;;;5034821;28;20026;-68
2023/06/12 02:28:40;;;;;;;4.57;3.13;;;;;;;;;;5034727;28;20087;-68
2023/06/12 02:31:06;;;;;;;5.13;2.72;;;;;;;;;;5033471;28;20061;-67
2023/06/12 02:33:31;;;;;;;6.43;2.88;;;;;;;;;;5035060;28;20454;-67
2023/06/12 02:35:57;;;;;;;7.30;2.97;;;;;;;;;;5034416;28;20052;-67
2023/06/12 02:38:22;;;;;;;7.43;2.90;;;;;;;;;;5035623;28;20022;-67
2023/06/12 02:40:47;;;;;;;5.68;3.38;;;;;;;;;;5034394;28;20471;-67
2023/06/12 02:43:12;;;;;;;9.45;3.50;;;;;;;;;;5034687;28;20052;-68
2023/06/12 02:45:38;;;;;;;7.35;3.67;;;;;;;;;;5034312;28;20028;-67
2023/06/12 02:48:03;;;;;;;5.63;3.10;;;;;;;;;;5055076;23;20461;-76
2023/06/12 02:50:28;;;;;;;10.18;3.30;;;;;;;;;;4997183;28;20026;-76
2023/06/12 02:52:54;;;;;;;7.78;3.80;;;;;;;;;;4996938;28;20029;-77
2023/06/12 02:55:19;;;;;;;7.20;3.35;;;;;;;;;;5014512;28;20503;-77
2023/06/12 02:57:44;;;;;;;8.77;5.15;;;;;;;;;;4996934;28;20475;-76
2023/06/12 03:00:12;;;;;;;11.70;3.55;;;;;;;;;;5014173;28;20025;-77
2023/06/12 03:02:42;;;;;;;11.27;3.65;;;;;;;;;;5014317;28;20487;-77
2023/06/12 03:05:16;;;;;;;11.40;4.55;;;;;;;;;;4997431;28;20061;-76
2023/06/12 03:07:42;;;;;;;5.10;2.80;;;;;;;;;;4997664;28;20200;-77
2023/06/12 03:10:08;;;;;;;4.88;3.50;;;;;;;;;;4996625;28;20022;-76
2023/06/12 03:12:34;;;;;;;8.32;3.92;;;;;;;;;;4980382;28;20022;-76
2023/06/12 03:15:00;;;;;;;5.18;3.78;;;;;;;;;;4996420;28;20044;-77
2023/06/12 03:17:25;;;;;;;5.03;3.88;;;;;;;;;;4996577;28;20033;-76
2023/06/12 03:19:50;;;;;;;9.07;3.38;;;;;;;;;;4980124;28;20526;-76
2023/06/12 03:22:16;;;;;;;7.63;3.78;;;;;;;;;;4996428;28;20030;-76
2023/06/12 03:24:41;;;;;;;10.05;4.28;;;;;;;;;;5010323;28;20434;-77
2023/06/12 03:27:07;;;;;;;10.25;4.22;;;;;;;;;;4996311;28;20120;-77
2023/06/12 03:29:32;;;;;;;5.43;3.22;;;;;;;;;;4996241;28;20022;-77
2023/06/12 03:31:57;;;;;;;5.65;2.80;;;;;;;;;;5011893;28;20036;-76
2023/06/12 03:34:23;;;;;;;7.82;3.65;;;;;;;;;;4996331;28;20026;-77
2023/06/12 03:36:48;;;;;;;6.95;3.85;;;;;;;;;;4995730;28;20026;-77
2023/06/12 03:39:13;;;;;;;5.65;3.17;;;;;;;;;;4993938;28;20050;-77
2023/06/12 03:41:51;;;;;;;4.97;3.42;;;;;;;;;;4994072;28;20019;-77
2023/06/12 03:44:16;;;;;;;6.47;2.75;;;;;;;;;;4985230;28;20083;-77
2023/06/12 03:46:41;;;;;;;8.38;3.40;;;;;;;;;;5013124;28;20021;-77
2023/06/12 03:49:06;;;;;;;8.10;3.05;;;;;;;;;;5013009;28;20030;-77
2023/06/12 03:51:33;;;;;;;7.38;3.40;;;;;;;;;;5013349;28;20022;-77
2023/06/12 03:53:58;;;;;;;7.30;2.83;;;;;;;;;;4992288;28;20022;-77
2023/06/12 03:56:24;;;;;;;7.05;4.03;;;;;;;;;;5008645;28;20467;-77
2023/06/12 03:58:50;;;;;;;9.60;3.50;;;;;;;;;;4993852;28;20043;-76
2023/06/12 04:01:15;;;;;;;7.97;3.92;;;;;;;;;;4979747;28;20069;-77
2023/06/12 04:03:40;;;;;;;6.68;3.10;;;;;;;;;;4976121;28;20452;-77
2023/06/12 04:06:05;;;;;;;6.25;3.95;;;;;;;;;;4993803;28;20030;-77
2023/06/12 04:08:32;;;;;;;11.02;4.43;;;;;;;;;;4960660;28;20026;-77
2023/06/12 04:10:57;;;;;;;6.63;2.78;;;;;;;;;;4992314;28;20396;-77
2023/06/12 04:13:22;;;;;;;7.18;2.88;;;;;;;;;;4976388;28;20080;-77
2023/06/12 04:15:48;;;;;;;7.50;3.38;;;;;;;;;;4976394;28;20018;-77
2023/06/12 04:18:14;;;;;;;10.48;4.15;;;;;;;;;;4960102;28;20023;-77
2023/06/12 04:20:39;;;;;;;6.68;4.10;;;;;;;;;;4976158;28;20491;-77
2023/06/12 04:23:11;;;;;;;5.97;2.70;;;;;;;;;;4979119;28;20037;-77
2023/06/12 04:25:36;;;;;;;14.25;3.78;;;;;;;;;;5013427;28;20021;-77
2023/06/12 04:28:03;;;;;;;8.95;3.40;;;;;;;;;;5012985;28;20041;-77
2023/06/12 04:30:31;;;;;;;5.13;3.70;;;;;;;;;;4995722;28;20141;-77
2023/06/12 04:32:56;;;;;;;7.75;3.42;;;;;;;;;;5012726;28;20030;-77
2023/06/12 04:35:22;;;;;;;7.65;3.08;;;;;;;;;;4995456;28;20056;-77
2023/06/12 04:37:52;;;;;;;6.35;4.25;;;;;;;;;;4995620;28;20046;-76
2023/06/12 04:40:20;;;;;;;11.05;4.47;;;;;;;;;;4996160;28;20104;-77
2023/06/12 04:42:46;;;;;;;6.30;3.25;;;;;;;;;;4995743;28;20143;-77
2023/06/12 04:45:14;;;;;;;6.82;3.55;;;;;;;;;;4995212;28;20352;-77
2023/06/12 04:47:40;;;;;;;5.68;3.35;;;;;;;;;;4995732;28;20080;-77
2023/06/12 04:50:09;;;;;;;6.25;4.15;;;;;;;;;;4995435;28;20034;-77
2023/06/12 04:52:34;;;;;;;6.65;2.80;;;;;;;;;;5012751;28;20033;-77
2023/06/12 04:55:00;;;;;;;9.60;4.05;;;;;;;;;;4995338;28;20468;-77
2023/06/12 04:57:27;;;;;;;8.30;3.20;;;;;;;;;;5012463;28;20030;-77
2023/06/12 04:59:52;;;;;;;6.18;4.32;;;;;;;;;;4997742;28;20034;-77
2023/06/12 05:02:18;;;;;;;9.88;4.30;;;;;;;;;;4999073;28;20026;-77
2023/06/12 05:04:43;;;;;;;7.85;4.00;;;;;;;;;;5016425;28;20168;-77
2023/06/12 05:07:16;;;;;;;7.88;4.15;;;;;;;;;;4998998;28;20026;-77
2023/06/12 05:09:44;;;;;;;5.40;2.72;;;;;;;;;;4999559;28;20033;-77
2023/06/12 05:12:10;;;;;;;5.95;3.03;;;;;;;;;;4982628;28;20021;-76
2023/06/12 05:14:38;;;;;;;7.15;3.58;;;;;;;;;;5016020;28;20022;-76
2023/06/12 05:17:04;;;;;;;9.82;3.72;;;;;;;;;;5016122;28;20399;-75
2023/06/12 05:19:29;;;;;;;7.03;3.00;;;;;;;;;;4998352;28;20037;-75
2023/06/12 05:21:54;;;;;;;5.63;2.65;;;;;;;;;;5015462;28;20017;-75
2023/06/12 05:24:20;;;;;;;6.55;3.13;;;;;;;;;;5015951;28;20022;-75
2023/06/12 05:26:45;;;;;;;6.25;3.38;;;;;;;;;;4998432;28;20492;-75
2023/06/12 05:29:11;;;;;;;7.85;3.78;;;;;;;;;;4998300;28;20026;-76
2023/06/12 05:31:36;;;;;;;6.93;3.90;;;;;;;;;;4998377;28;20021;-76
2023/06/12 05:34:01;;;;;;;6.38;3.97;;;;;;;;;;5015840;28;20053;-75
2023/06/12 05:36:27;;;;;;;9.45;3.05;;;;;;;;;;4981833;28;20399;-76
2023/06/12 05:38:52;;;;;;;11.27;3.40;;;;;;;;;;4998132;28;20391;-75
2023/06/12 05:41:17;;;;;;;7.80;3.45;;;;;;;;;;4998081;28;20026;-76
2023/06/12 05:43:45;;;;;;;10.15;4.00;;;;;;;;;;4998060;28;20033;-76
2023/06/12 05:46:11;;;;;;;11.35;4.00;;;;;;;;;;4998373;28;20029;-75
2023/06/12 05:48:36;;;;;;;7.75;3.65;;;;;;;;;;4997555;28;20042;-75
2023/06/12 05:51:08;;;;;;;7.55;3.47;;;;;;;;;;4994705;28;20547;-76
2023/06/12 05:53:34;;;;;;;9.13;4.20;;;;;;;;;;4978494;28;20030;-76
2023/06/12 05:56:00;;;;;;;8.05;4.63;;;;;;;;;;4994632;28;20495;-76
2023/06/12 05:58:25;;;;;;;8.07;3.92;;;;;;;;;;4978151;28;20022;-76
2023/06/12 06:00:52;;;;;;;10.18;4.05;;;;;;;;;;5013521;28;20026;-76
2023/06/12 06:03:19;;;;;;;7.53;4.00;;;;;;;;;;4997640;28;20057;-76
2023/06/12 06:05:44;;;;;;;6.65;2.85;;;;;;;;;;4998078;28;20076;-76
2023/06/12 06:08:13;;;;;;;5.50;2.90;;;;;;;;;;4981282;28;20025;-76
2023/06/12 06:10:38;;;;;;;6.65;2.80;;;;;;;;;;4997264;28;20024;-76
2023/06/12 06:13:04;;;;;;;4.32;3.03;;;;;;;;;;4997710;28;20113;-76
2023/06/12 06:15:29;;;;;;;7.00;3.40;;;;;;;;;;4997235;28;20026;-76
2023/06/12 06:17:54;;;;;;;5.00;3.38;;;;;;;;;;5014981;28;20064;-76
2023/06/12 06:20:20;;;;;;;7.55;3.47;;;;;;;;;;4997092;28;20017;-76
2023/06/12 06:22:46;;;;;;;7.10;4.28;;;;;;;;;;4997576;28;20519;-76
2023/06/12 06:25:12;;;;;;;6.45;3.25;;;;;;;;;;4981233;28;20026;-76
2023/06/12 06:27:37;;;;;;;7.25;3.28;;;;;;;;;;4997705;28;20026;-76
2023/06/12 06:30:03;;;;;;;7.40;4.10;;;;;;;;;;4998300;28;79084;-76
2023/06/12 06:32:28;;;;;;;4.85;3.42;;;;;;;;;;4967118;28;20183;-76
2023/06/12 06:34:55;;;;;;;13.38;3.85;;;;;;;;;;4997418;28;20084;-76
2023/06/12 06:37:20;;;;;;;7.75;3.00;;;;;;;;;;4980951;28;20487;-76
2023/06/12 06:39:46;;;;;;;8.43;3.60;;;;;;;;;;4995923;28;20064;-76
2023/06/12 06:42:11;;;;;;;7.07;3.53;;;;;;;;;;4979866;28;20508;-76
2023/06/12 06:44:37;;;;;;;9.10;3.35;;;;;;;;;;4996373;28;20030;-76
2023/06/12 06:47:03;;;;;;;6.57;3.05;;;;;;;;;;4997364;28;20038;-75
2023/06/12 06:49:30;;;;;;;10.43;3.67;;;;;;;;;;4997016;28;20036;-76
2023/06/12 06:51:55;;;;;;;7.80;3.35;;;;;;;;;;4997228;28;20028;-76
2023/06/12 06:54:20;;;;;;;7.32;3.50;;;;;;;;;;4996925;28;20026;-76
2023/06/12 06:56:47;;;;;;;5.70;3.67;;;;;;;;;;5014681;28;20034;-76
2023/06/12 06:59:12;;;;;;;6.97;3.25;;;;;;;;;;5014616;28;20483;-77
2023/06/12 07:01:39;;;;;;;5.90;3.88;;;;;;;;;;5014257;28;20064;-76
2023/06/12 07:04:04;;;;;;;5.80;3.13;;;;;;;;;;4996671;28;20068;-77
2023/06/12 07:06:30;;;;;;;6.53;3.90;;;;;;;;;;4996735;28;20049;-76
2023/06/12 07:08:55;;;;;;;5.40;3.80;;;;;;;;;;4996606;28;20513;-76
2023/06/12 07:11:20;;;;;;;9.45;3.80;;;;;;;;;;5014169;28;20026;-76
2023/06/12 07:13:46;;;;;;;5.20;3.08;;;;;;;;;;4980482;28;20026;-77
2023/06/12 07:16:11;;;;;;;5.10;3.28;;;;;;;;;;4996561;28;20049;-77
2023/06/12 07:18:36;;;;;;;5.22;3.42;;;;;;;;;;4996522;28;20468;-76
2023/06/12 07:21:03;;;;;;;5.68;2.90;;;;;;;;;;5013493;28;20025;-75
2023/06/12 07:23:28;;;;;;;5.93;3.38;;;;;;;;;;4996280;28;20450;-77
2023/06/12 07:25:53;;;;;;;6.95;3.17;;;;;;;;;;5014157;28;20030;-76
2023/06/12 07:28:19;;;;;;;8.05;3.70;;;;;;;;;;4996315;28;20022;-77
2023/06/12 07:30:44;;;;;;;5.78;3.08;;;;;;;;;;5012794;28;20510;-77
2023/06/12 07:33:10;;;;;;;10.40;3.83;;;;;;;;;;4996624;28;20145;-76
2023/06/12 07:35:35;;;;;;;7.82;4.13;;;;;;;;;;4996467;28;20487;-76
2023/06/12 07:38:02;;;;;;;5.88;3.28;;;;;;;;;;5013748;28;20068;-77
2023/06/12 07:40:27;;;;;;;8.20;3.67;;;;;;;;;;4996321;28;20025;-76
2023/06/12 07:42:52;;;;;;;8.43;3.97;;;;;;;;;;4996143;28;20040;-77
2023/06/12 07:45:18;;;;;;;8.05;3.85;;;;;;;;;;4996504;28;20025;-73
2023/06/12 07:47:43;;;;;;;5.80;3.58;;;;;;;;;;5013682;28;20045;-74
2023/06/12 07:50:08;;;;;;;6.82;3.63;;;;;;;;;;4979682;28;20034;-74
2023/06/12 07:52:34;;;;;;;6.47;3.80;;;;;;;;;;4996244;28;20018;-72
2023/06/12 07:54:59;;;;;;;8.95;3.67;;;;;;;;;;4997090;28;20050;-73
2023/06/12 07:57:24;;;;;;;7.05;3.85;;;;;;;;;;4995981;28;20487;-73
2023/06/12 07:59:50;;;;;;;5.95;3.80;;;;;;;;;;4995948;28;20026;-72
2023/06/12 08:02:16;;;;;;;8.35;3.53;;;;;;;;;;5013836;28;20037;-73
2023/06/12 08:04:42;;;;;;;7.43;3.17;;;;;;;;;;4996369;28;20025;-72
2023/06/12 08:07:12;;;;;;;6.45;3.70;;;;;;;;;;4979703;28;20121;-73
2023/06/12 08:09:40;;;;;;;7.35;4.25;;;;;;;;;;5013375;28;20431;-73
2023/06/12 08:12:05;;;;;;;6.70;3.97;;;;;;;;;;4996465;28;20099;-72
2023/06/12 08:14:31;;;;;;;6.53;3.65;;;;;;;;;;5013559;28;20104;-72
2023/06/12 08:16:56;;;;;;;6.25;4.15;;;;;;;;;;5013256;28;20475;-73
2023/06/12 08:19:21;;;;;;;6.40;2.85;;;;;;;;;;4995681;28;20026;-73
2023/06/12 08:21:46;;;;;;;7.22;3.83;;;;;;;;;;4979339;28;20104;-73
2023/06/12 08:24:14;;;;;;;9.98;4.07;;;;;;;;;;4995638;28;20061;-72
2023/06/12 08:26:39;;;;;;;6.72;3.50;;;;;;;;;;4996479;28;20506;-74
2023/06/12 08:29:05;;;;;;;8.52;4.28;;;;;;;;;;5013006;28;20030;-74
2023/06/12 08:31:33;;;;;;;7.25;4.00;;;;;;;;;;4995625;28;20387;-74
2023/06/12 08:33:58;;;;;;;7.82;4.00;;;;;;;;;;4998906;28;20056;-74
2023/06/12 08:36:23;;;;;;;6.97;4.20;;;;;;;;;;4999528;28;20061;-75
2023/06/12 08:38:49;;;;;;;6.70;4.93;;;;;;;;;;4999354;28;20480;-74
2023/06/12 08:41:17;;;;;;;8.15;3.83;;;;;;;;;;5016915;28;20026;-74
2023/06/12 08:43:42;;;;;;;5.47;3.47;;;;;;;;;;4999353;28;20476;-74
2023/06/12 08:46:08;;;;;;;7.38;3.60;;;;;;;;;;4999392;28;20045;-74
2023/06/12 08:48:33;;;;;;;6.80;4.07;;;;;;;;;;4999458;28;20044;-74
2023/06/12 08:51:02;;;;;;;7.50;3.80;;;;;;;;;;5000569;28;20029;-75
2023/06/12 08:53:28;;;;;;;8.38;4.40;;;;;;;;;;5000629;28;20026;-74
2023/06/12 08:55:55;;;;;;;8.52;3.70;;;;;;;;;;5018077;28;20571;-75
2023/06/12 08:58:21;;;;;;;7.05;4.47;;;;;;;;;;5017635;28;20022;-74
2023/06/12 09:00:46;;;;;;;6.70;3.95;;;;;;;;;;5000152;28;20033;-74
2023/06/12 09:03:12;;;;;;;6.60;3.47;;;;;;;;;;5017772;28;20030;-74
2023/06/12 09:05:38;;;;;;;5.22;3.55;;;;;;;;;;4999980;28;20034;-75
2023/06/12 09:08:05;;;;;;;7.47;4.05;;;;;;;;;;4999703;28;20049;-73
2023/06/12 09:10:34;;;;;;;5.85;3.50;;;;;;;;;;5017310;28;20480;-73
2023/06/12 09:13:01;;;;;;;7.20;3.55;;;;;;;;;;4999788;28;20403;-73
2023/06/12 09:15:26;;;;;;;9.85;4.55;;;;;;;;;;4983544;28;20111;-73
2023/06/12 09:17:53;;;;;;;6.43;3.90;;;;;;;;;;5016910;28;20056;-73
2023/06/12 09:20:24;;;;;;;6.57;3.97;;;;;;;;;;4999296;28;20018;-73
2023/06/12 09:22:51;;;;;;;6.55;3.47;;;;;;;;;;4999875;28;20083;-73
2023/06/12 09:25:18;;;;;;;6.63;3.80;;;;;;;;;;4983924;28;20022;-73
2023/06/12 09:27:46;;;;;;;6.65;3.50;;;;;;;;;;4983911;28;20033;-73
2023/06/12 09:30:11;;;;;;;7.00;3.47;;;;;;;;;;4983634;28;20498;-73
2023/06/12 09:32:36;;;;;;;6.15;3.47;;;;;;;;;;5000054;28;20168;-73
2023/06/12 09:35:03;;;;;;;6.97;4.28;;;;;;;;;;5017680;28;20104;-73
2023/06/12 09:37:29;;;;;;;9.90;3.40;;;;;;;;;;4983457;28;20026;-73
2023/06/12 09:40:12;;;;;;;7.22;3.90;;;;;;;;;;4982328;28;20546;-76
2023/06/12 09:42:38;;;;;;;;;;;;;;;;;;5016597;28;20032;-76
2023/06/12 09:45:13;;;;;;;7.93;4.45;;;;;;;;;;4981198;28;19913;-76
2023/06/12 09:47:43;;;;;;;6.00;3.50;;;;;;;;;;5015776;28;20022;-76
2023/06/12 09:50:10;;;;;;;7.03;3.90;;;;;;;;;;4981687;28;20033;-77
2023/06/12 09:52:36;;;;;;;7.38;4.65;;;;;;;;;;4982353;28;20044;-77
2023/06/12 09:55:03;;;;;;;6.53;3.63;;;;;;;;;;4981888;28;20483;-77
2023/06/12 09:57:29;;;;;;;8.40;3.42;;;;;;;;;;4998338;28;20030;-76
2023/06/12 09:59:56;;;;;;;5.18;3.65;;;;;;;;;;4997943;28;20026;-77
2023/06/12 10:02:21;;;;;;;5.40;3.53;;;;;;;;;;5015553;28;20029;-77
2023/06/12 10:05:06;;;;;;;7.53;4.70;;;;;;;;;;4982495;28;20117;-77
2023/06/12 10:07:38;;;;;;;5.57;4.00;;;;;;;;;;4997999;28;20407;-77
2023/06/12 10:10:07;;;;;;;8.13;4.32;;;;;;;;;;4998020;28;20487;-77
2023/06/12 10:12:33;;;;;;;4.75;3.28;;;;;;;;;;4998328;28;20033;-77
2023/06/12 10:14:59;;;;;;;6.50;4.28;;;;;;;;;;5014717;28;20533;-76
2023/06/12 10:17:25;;;;;;;5.90;3.75;;;;;;;;;;5013505;28;20029;-77
2023/06/12 10:19:51;;;;;;;7.28;3.80;;;;;;;;;;4997717;28;20034;-77
2023/06/12 10:22:16;;;;;;;7.18;3.85;;;;;;;;;;4981229;28;20028;-77
2023/06/12 10:24:42;;;;;;;9.65;3.47;;;;;;;;;;5015149;28;20188;-76
2023/06/12 10:27:08;;;;;;;8.32;3.53;;;;;;;;;;4997567;28;20032;-77
2023/06/12 10:29:36;;;;;;;7.57;4.10;;;;;;;;;;5013878;28;20032;-76
2023/06/12 10:32:05;;;;;;;6.63;4.35;;;;;;;;;;4997708;28;20434;-77
2023/06/12 10:34:35;;;;;;;5.97;4.18;;;;;;;;;;5014917;28;20472;-77
2023/06/12 10:37:20;;;;;;;7.78;3.72;;;;;;;;;;4997355;28;20030;-76
2023/06/12 10:39:46;;;;;;;5.93;4.20;;;;;;;;;;4997441;28;20025;-76
2023/06/12 10:42:11;;;;;;;8.75;3.90;;;;;;;;;;5014639;28;20433;-77
2023/06/12 10:44:38;;;;;;;9.15;3.83;;;;;;;;;;5013612;28;20034;-75
2023/06/12 10:47:04;;;;;;;7.90;3.47;;;;;;;;;;4997201;28;20022;-74
2023/06/12 10:49:30;;;;;;;8.20;3.60;;;;;;;;;;4997062;28;20048;-74
2023/06/12 10:51:57;;;;;;;7.25;3.63;;;;;;;;;;4973936;28;20015;-73
2023/06/12 10:54:26;;;;;;;8.55;4.03;;;;;;;;;;4973941;28;20034;-74
2023/06/12 10:56:59;;;;;;;6.72;4.50;;;;;;;;;;4989950;28;20025;-74
2023/06/12 10:59:34;;;;;;;6.63;4.32;;;;;;;;;;4977028;28;20018;-74
2023/06/12 11:02:00;;;;;;;7.18;3.67;;;;;;;;;;4972825;28;20033;-74
2023/06/12 11:04:25;;;;;;;8.00;4.13;;;;;;;;;;4967648;28;20105;-74
2023/06/12 11:06:51;;;;;;;6.07;4.35;;;;;;;;;;4975206;28;20031;-76
2023/06/12 11:09:16;;;;;;;6.30;3.70;;;;;;;;;;4958056;28;20031;-77
2023/06/12 11:11:47;;;;;;;8.90;3.83;;;;;;;;;;4975192;28;20015;-77
2023/06/12 11:14:13;;;;;;;9.95;3.42;;;;;;;;;;4958248;28;20030;-77
2023/06/12 11:16:41;;;;;;;6.50;4.65;;;;;;;;;;4958044;28;20417;-77
2023/06/12 11:19:07;;;;;;;5.72;4.25;;;;;;;;;;4975053;28;20158;-76
2023/06/12 11:21:37;;;;;;;8.50;4.43;;;;;;;;;;4957862;28;20101;-77
2023/06/12 11:24:06;;;;;;;5.57;3.92;;;;;;;;;;4970778;28;20023;-77
2023/06/12 11:26:32;;;;;;;7.53;3.70;;;;;;;;;;4973762;28;20027;-77
2023/06/12 11:29:16;;;;;;;7.38;4.05;;;;;;;;;;4990138;28;20070;-77
2023/06/12 11:31:48;;;;;;;7.15;4.13;;;;;;;;;;4990127;28;20158;-77
2023/06/12 11:34:13;;;;;;;6.47;3.70;;;;;;;;;;4973799;28;20027;-77
2023/06/12 11:36:38;;;;;;;4.70;3.80;;;;;;;;;;4989934;28;20019;-77
2023/06/12 11:39:16;;;;;;;6.10;3.30;;;;;;;;;;4966034;28;20559;-77
2023/06/12 11:41:42;;;;;;;8.70;3.83;;;;;;;;;;4977084;28;20147;-78
2023/06/12 11:44:07;;;;;;;6.10;4.50;;;;;;;;;;4960670;28;20493;-77
2023/06/12 11:46:32;;;;;;;6.15;4.53;;;;;;;;;;4994248;28;20033;-77
2023/06/12 11:48:58;;;;;;;5.20;3.72;;;;;;;;;;4976851;28;20444;-77
2023/06/12 11:51:23;;;;;;;5.35;4.03;;;;;;;;;;4994257;28;20058;-76
2023/06/12 11:53:49;;;;;;;7.57;3.45;;;;;;;;;;4977001;28;20022;-77
2023/06/12 11:56:14;;;;;;;6.40;3.92;;;;;;;;;;4960778;28;20038;-77
2023/06/12 11:58:44;;;;;;;6.75;4.40;;;;;;;;;;4976309;28;20030;-76
2023/06/12 12:01:14;;;;;;;7.53;3.97;;;;;;;;;;4993426;28;20028;-77
2023/06/12 12:03:46;;;;;;;5.88;4.18;;;;;;;;;;4971150;28;20046;-78
2023/06/12 12:06:11;;;;;;;6.80;3.72;;;;;;;;;;4957717;28;20031;-77
2023/06/12 12:08:37;;;;;;;6.93;4.35;;;;;;;;;;4963130;28;20038;-78
2023/06/12 12:11:23;;;;;;;6.45;4.35;;;;;;;;;;4960450;28;20026;-77
2023/06/12 12:13:53;;;;;;;6.70;4.13;;;;;;;;;;4976318;28;20033;-77
2023/06/12 12:16:22;;;;;;;6.78;3.78;;;;;;;;;;4976498;28;20113;-77
2023/06/12 12:18:47;;;;;;;5.30;3.65;;;;;;;;;;4960233;28;20034;-77
2023/06/12 12:21:13;;;;;;;9.25;4.32;;;;;;;;;;4973059;28;20027;-77
2023/06/12 12:23:40;;;;;;;5.70;4.30;;;;;;;;;;4956494;28;20027;-77
2023/06/12 12:26:08;;;;;;;7.50;4.22;;;;;;;;;;4956930;28;20023;-77
2023/06/12 12:28:33;;;;;;;4.80;3.80;;;;;;;;;;4941750;28;20447;-78
2023/06/12 12:30:59;;;;;;;8.30;4.45;;;;;;;;;;4957446;28;20023;-77
2023/06/12 12:33:24;;;;;;;5.00;3.95;;;;;;;;;;4974647;28;20022;-77
2023/06/12 12:35:49;;;;;;;6.07;4.07;;;;;;;;;;4957483;28;20026;-77
2023/06/12 12:38:15;;;;;;;6.10;4.32;;;;;;;;;;4941264;28;20511;-78
2023/06/12 12:40:40;;;;;;;7.85;3.70;;;;;;;;;;4957385;28;20069;-77
2023/06/12 12:43:05;;;;;;;8.05;4.43;;;;;;;;;;4957269;28;20477;-78
2023/06/12 12:45:31;;;;;;;7.85;4.50;;;;;;;;;;4957672;28;20031;-77
2023/06/12 12:47:56;;;;;;;4.85;3.70;;;;;;;;;;4974411;28;20023;-78
2023/06/12 12:50:21;;;;;;;8.10;4.68;;;;;;;;;;4974588;28;20023;-77
2023/06/12 12:52:47;;;;;;;7.38;4.22;;;;;;;;;;4957014;28;20054;-77
2023/06/12 12:55:12;;;;;;;7.55;4.72;;;;;;;;;;4940815;28;20027;-77
2023/06/12 12:57:42;;;;;;;6.82;3.95;;;;;;;;;;4940718;28;20030;-77
2023/06/12 13:00:09;;;;;;;7.10;4.30;;;;;;;;;;4956922;28;20023;-77
2023/06/12 13:02:34;;;;;;;9.23;4.15;;;;;;;;;;4974082;28;20062;-77
2023/06/12 13:05:00;;;;;;;4.82;3.83;;;;;;;;;;4957444;28;20496;-77
2023/06/12 13:07:26;;;;;;;6.57;4.15;;;;;;;;;;4957035;28;20499;-77
2023/06/12 13:09:52;;;;;;;6.15;3.75;;;;;;;;;;4956743;28;20488;-78
2023/06/12 13:12:17;;;;;;;6.53;4.18;;;;;;;;;;4973900;28;20061;-78
2023/06/12 13:14:45;;;;;;;6.82;4.18;;;;;;;;;;4940900;28;20034;-77
2023/06/12 13:17:10;;;;;;;7.90;4.40;;;;;;;;;;4956867;28;20034;-78
2023/06/12 13:19:36;;;;;;;7.50;3.80;;;;;;;;;;4957375;28;20030;-77
2023/06/12 13:22:01;;;;;;;6.47;4.13;;;;;;;;;;4960117;28;20019;-78
2023/06/12 13:24:27;;;;;;;8.52;4.45;;;;;;;;;;4979457;28;20039;-80
2023/06/12 13:26:53;;;;;;;6.03;4.65;;;;;;;;;;4979926;28;20019;-78
2023/06/12 13:29:18;;;;;;;8.45;3.97;;;;;;;;;;4967882;28;20044;-78
2023/06/12 13:31:43;;;;;;;6.82;4.15;;;;;;;;;;4984945;28;20019;-78
2023/06/12 13:34:09;;;;;;;7.28;5.07;;;;;;;;;;4967383;28;20392;-78
2023/06/12 13:36:34;;;;;;;4.80;4.30;;;;;;;;;;4966532;28;20058;-79
2023/06/12 13:39:00;;;;;;;5.18;3.92;;;;;;;;;;4967053;28;20022;-78
2023/06/12 13:41:26;;;;;;;6.72;4.10;;;;;;;;;;4969388;28;20027;-79
2023/06/12 13:43:51;;;;;;;8.00;3.95;;;;;;;;;;4968249;28;20050;-79
2023/06/12 13:46:16;;;;;;;6.47;3.83;;;;;;;;;;4963362;28;20026;-78
2023/06/12 13:48:43;;;;;;;7.60;3.95;;;;;;;;;;4965667;28;20034;-79
2023/06/12 13:51:08;;;;;;;5.57;4.55;;;;;;;;;;4968977;28;20023;-79
2023/06/12 13:53:33;;;;;;;7.35;3.88;;;;;;;;;;4969303;28;20052;-79
2023/06/12 13:55:58;;;;;;;7.47;3.80;;;;;;;;;;4969120;28;20485;-79
2023/06/12 13:58:24;;;;;;;6.55;4.63;;;;;;;;;;4950598;28;20030;-77
2023/06/12 14:00:50;;;;;;;7.10;3.97;;;;;;;;;;4966238;28;20094;-78
2023/06/12 14:03:15;;;;;;;4.97;4.10;;;;;;;;;;4964837;28;20041;-78
2023/06/12 14:05:40;;;;;;;7.25;4.50;;;;;;;;;;4979894;28;20049;-77
2023/06/12 14:08:06;;;;;;;7.63;3.78;;;;;;;;;;4964158;28;20424;-78
2023/06/12 14:10:32;;;;;;;7.10;3.97;;;;;;;;;;4963770;28;20489;-78
2023/06/12 14:12:57;;;;;;;6.03;3.90;;;;;;;;;;4966670;28;20054;-79
2023/06/12 14:15:23;;;;;;;5.07;3.72;;;;;;;;;;4982953;28;20031;-78
2023/06/12 14:17:48;;;;;;;5.35;4.07;;;;;;;;;;4961882;28;20031;-79
2023/06/12 14:20:14;;;;;;;6.25;3.75;;;;;;;;;;4966618;28;20519;-80
2023/06/12 14:22:40;;;;;;;5.63;4.20;;;;;;;;;;4944877;28;20038;-78
2023/06/12 14:25:06;;;;;;;4.85;3.50;;;;;;;;;;4959527;28;20023;-79
2023/06/12 14:27:33;;;;;;;5.60;3.97;;;;;;;;;;4943416;28;20030;-78
2023/06/12 14:29:58;;;;;;;5.88;4.45;;;;;;;;;;4959108;28;20037;-77
2023/06/12 14:32:23;;;;;;;7.40;3.83;;;;;;;;;;4943064;28;20022;-78
2023/06/12 14:34:49;;;;;;;6.47;4.07;;;;;;;;;;4976610;28;20031;-78
2023/06/12 14:37:14;;;;;;;5.18;3.90;;;;;;;;;;4976832;28;20023;-78
2023/06/12 14:39:40;;;;;;;5.75;3.88;;;;;;;;;;4976015;28;20085;-78